sensor_id;sensor_type;location;lat;lon;timestamp;P1;durP1;ratioP1;P2;durP2;ratioP2
50789;SDS011;37287;47.554;7.844;2023-06-24T00:00:57;3.67;;;2.83;;
50789;SDS011;37287;47.554;7.844;2023-06-24T00:03:23;3.53;;;2.80;;
50789;SDS011;37287;47.554;7.844;2023-06-24T00:05:50;3.85;;;2.85;;
50789;SDS011;37287;47.554;7.844;2023-06-24T00:08:19;4.82;;;3.20;;
50789;SDS011;37287;47.554;7.844;2023-06-24T00:10:49;3.15;;;2.78;;
50789;SDS011;37287;47.554;7.844;2023-06-24T00:13:16;2.88;;;2.65;;
50789;SDS011;37287;47.554;7.844;2023-06-24T00:15:44;4.13;;;3.08;;
50789;SDS011;37287;47.554;7.844;2023-06-24T00:18:10;3.20;;;2.78;;
50789;SDS011;37287;47.554;7.844;2023-06-24T00:20:37;3.78;;;2.83;;
50789;SDS011;37287;47.554;7.844;2023-06-24T00:23:05;2.60;;;2.40;;
50789;SDS011;37287;47.554;7.844;2023-06-24T00:25:32;2.70;;;2.50;;
50789;SDS011;37287;47.554;7.844;2023-06-24T00:27:59;3.97;;;2.63;;
50789;SDS011;37287;47.554;7.844;2023-06-24T00:30:33;3.20;;;2.90;;
50789;SDS011;37287;47.554;7.844;2023-06-24T00:33:00;3.53;;;2.97;;
50789;SDS011;37287;47.554;7.844;2023-06-24T00:35:26;4.15;;;2.80;;
50789;SDS011;37287;47.554;7.844;2023-06-24T00:37:53;2.90;;;2.70;;
50789;SDS011;37287;47.554;7.844;2023-06-24T00:40:24;2.95;;;2.75;;
50789;SDS011;37287;47.554;7.844;2023-06-24T00:42:57;2.97;;;2.63;;
50789;SDS011;37287;47.554;7.844;2023-06-24T00:45:24;2.97;;;2.70;;
50789;SDS011;37287;47.554;7.844;2023-06-24T00:47:51;5.38;;;2.85;;
50789;SDS011;37287;47.554;7.844;2023-06-24T00:50:18;2.70;;;2.50;;
50789;SDS011;37287;47.554;7.844;2023-06-24T00:52:45;3.15;;;2.80;;
50789;SDS011;37287;47.554;7.844;2023-06-24T00:55:12;2.85;;;2.65;;
50789;SDS011;37287;47.554;7.844;2023-06-24T00:57:41;3.15;;;2.50;;
50789;SDS011;37287;47.554;7.844;2023-06-24T01:00:10;2.88;;;2.67;;
50789;SDS011;37287;47.554;7.844;2023-06-24T01:08:48;2.50;;;2.30;;
50789;SDS011;37287;47.554;7.844;2023-06-24T01:11:17;3.13;;;2.40;;
50789;SDS011;37287;47.554;7.844;2023-06-24T01:13:44;2.30;;;2.20;;
50789;SDS011;37287;47.554;7.844;2023-06-24T01:16:11;2.80;;;2.45;;
50789;SDS011;37287;47.554;7.844;2023-06-24T01:18:48;2.75;;;2.55;;
50789;SDS011;37287;47.554;7.844;2023-06-24T01:34:42;2.40;;;2.17;;
50789;SDS011;37287;47.554;7.844;2023-06-24T01:37:19;2.63;;;2.42;;
50789;SDS011;37287;47.554;7.844;2023-06-24T01:39:56;2.45;;;2.28;;
50789;SDS011;37287;47.554;7.844;2023-06-24T01:42:32;3.55;;;2.78;;
50789;SDS011;37287;47.554;7.844;2023-06-24T01:45:27;3.53;;;2.75;;
50789;SDS011;37287;47.554;7.844;2023-06-24T01:48:02;4.05;;;2.67;;
50789;SDS011;37287;47.554;7.844;2023-06-24T01:50:34;3.00;;;2.70;;
50789;SDS011;37287;47.554;7.844;2023-06-24T01:53:04;3.30;;;3.00;;
50789;SDS011;37287;47.554;7.844;2023-06-24T01:55:33;2.88;;;2.55;;
50789;SDS011;37287;47.554;7.844;2023-06-24T01:58:04;3.97;;;2.80;;
50789;SDS011;37287;47.554;7.844;2023-06-24T02:00:33;4.85;;;2.88;;
50789;SDS011;37287;47.554;7.844;2023-06-24T02:03:02;2.72;;;2.53;;
50789;SDS011;37287;47.554;7.844;2023-06-24T02:05:33;2.60;;;2.35;;
50789;SDS011;37287;47.554;7.844;2023-06-24T02:08:02;2.78;;;2.58;;
50789;SDS011;37287;47.554;7.844;2023-06-24T02:10:30;2.80;;;2.60;;
50789;SDS011;37287;47.554;7.844;2023-06-24T02:13:01;3.85;;;2.80;;
50789;SDS011;37287;47.554;7.844;2023-06-24T02:15:28;3.00;;;2.78;;
50789;SDS011;37287;47.554;7.844;2023-06-24T02:17:55;3.10;;;2.80;;
50789;SDS011;37287;47.554;7.844;2023-06-24T02:20:25;2.72;;;2.53;;
50789;SDS011;37287;47.554;7.844;2023-06-24T02:22:53;3.70;;;2.67;;
50789;SDS011;37287;47.554;7.844;2023-06-24T02:25:23;3.10;;;2.80;;
50789;SDS011;37287;47.554;7.844;2023-06-24T02:27:52;3.50;;;3.00;;
50789;SDS011;37287;47.554;7.844;2023-06-24T02:30:20;3.75;;;2.90;;
50789;SDS011;37287;47.554;7.844;2023-06-24T02:32:48;4.10;;;2.80;;
50789;SDS011;37287;47.554;7.844;2023-06-24T02:35:15;2.97;;;2.78;;
50789;SDS011;37287;47.554;7.844;2023-06-24T02:37:41;2.80;;;2.60;;
50789;SDS011;37287;47.554;7.844;2023-06-24T02:40:08;3.45;;;2.70;;
50789;SDS011;37287;47.554;7.844;2023-06-24T02:42:38;4.63;;;2.80;;
50789;SDS011;37287;47.554;7.844;2023-06-24T02:45:10;2.67;;;2.47;;
50789;SDS011;37287;47.554;7.844;2023-06-24T02:47:42;4.57;;;2.70;;
50789;SDS011;37287;47.554;7.844;2023-06-24T02:50:12;3.10;;;2.80;;
50789;SDS011;37287;47.554;7.844;2023-06-24T02:52:45;2.45;;;2.25;;
50789;SDS011;37287;47.554;7.844;2023-06-24T02:55:12;3.28;;;2.72;;
50789;SDS011;37287;47.554;7.844;2023-06-24T02:57:41;3.00;;;2.63;;
50789;SDS011;37287;47.554;7.844;2023-06-24T03:00:08;3.55;;;2.72;;
50789;SDS011;37287;47.554;7.844;2023-06-24T03:02:40;2.92;;;2.63;;
50789;SDS011;37287;47.554;7.844;2023-06-24T03:05:09;6.68;;;2.85;;
50789;SDS011;37287;47.554;7.844;2023-06-24T03:07:37;3.17;;;2.88;;
50789;SDS011;37287;47.554;7.844;2023-06-24T03:10:10;3.40;;;2.72;;
50789;SDS011;37287;47.554;7.844;2023-06-24T03:12:37;2.80;;;2.60;;
50789;SDS011;37287;47.554;7.844;2023-06-24T03:15:03;3.22;;;2.92;;
50789;SDS011;37287;47.554;7.844;2023-06-24T03:17:38;3.10;;;2.80;;
50789;SDS011;37287;47.554;7.844;2023-06-24T03:20:05;3.05;;;2.75;;
50789;SDS011;37287;47.554;7.844;2023-06-24T03:22:37;3.10;;;2.83;;
50789;SDS011;37287;47.554;7.844;2023-06-24T03:25:04;3.33;;;2.70;;
50789;SDS011;37287;47.554;7.844;2023-06-24T03:27:30;3.28;;;2.58;;
50789;SDS011;37287;47.554;7.844;2023-06-24T03:30:04;3.08;;;2.75;;
50789;SDS011;37287;47.554;7.844;2023-06-24T03:32:31;2.88;;;2.63;;
50789;SDS011;37287;47.554;7.844;2023-06-24T03:35:02;4.88;;;2.92;;
50789;SDS011;37287;47.554;7.844;2023-06-24T03:37:29;3.10;;;2.88;;
50789;SDS011;37287;47.554;7.844;2023-06-24T03:39:56;3.33;;;2.83;;
50789;SDS011;37287;47.554;7.844;2023-06-24T03:42:23;3.50;;;2.80;;
50789;SDS011;37287;47.554;7.844;2023-06-24T03:44:51;3.28;;;2.97;;
50789;SDS011;37287;47.554;7.844;2023-06-24T03:47:18;5.40;;;3.25;;
50789;SDS011;37287;47.554;7.844;2023-06-24T03:49:44;3.20;;;2.90;;
50789;SDS011;37287;47.554;7.844;2023-06-24T03:52:16;5.03;;;2.90;;
50789;SDS011;37287;47.554;7.844;2023-06-24T03:54:43;3.15;;;2.72;;
50789;SDS011;37287;47.554;7.844;2023-06-24T03:57:10;3.03;;;2.72;;
50789;SDS011;37287;47.554;7.844;2023-06-24T03:59:38;3.53;;;3.05;;
50789;SDS011;37287;47.554;7.844;2023-06-24T04:02:05;3.22;;;2.92;;
50789;SDS011;37287;47.554;7.844;2023-06-24T04:04:34;4.57;;;2.42;;
50789;SDS011;37287;47.554;7.844;2023-06-24T04:07:03;3.17;;;2.88;;
50789;SDS011;37287;47.554;7.844;2023-06-24T04:09:34;4.10;;;3.05;;
50789;SDS011;37287;47.554;7.844;2023-06-24T04:12:04;3.55;;;2.85;;
50789;SDS011;37287;47.554;7.844;2023-06-24T04:14:35;3.00;;;2.67;;
50789;SDS011;37287;47.554;7.844;2023-06-24T04:17:02;4.50;;;3.22;;
50789;SDS011;37287;47.554;7.844;2023-06-24T04:19:29;7.88;;;3.00;;
50789;SDS011;37287;47.554;7.844;2023-06-24T04:21:57;3.08;;;2.80;;
50789;SDS011;37287;47.554;7.844;2023-06-24T04:24:24;3.00;;;2.80;;
50789;SDS011;37287;47.554;7.844;2023-06-24T04:26:50;4.70;;;3.10;;
50789;SDS011;37287;47.554;7.844;2023-06-24T04:29:17;3.33;;;2.92;;
50789;SDS011;37287;47.554;7.844;2023-06-24T04:31:43;4.18;;;2.80;;
50789;SDS011;37287;47.554;7.844;2023-06-24T04:34:12;3.30;;;2.72;;
50789;SDS011;37287;47.554;7.844;2023-06-24T04:36:38;2.83;;;2.63;;
50789;SDS011;37287;47.554;7.844;2023-06-24T04:39:05;3.30;;;2.95;;
50789;SDS011;37287;47.554;7.844;2023-06-24T04:41:31;3.40;;;3.08;;
50789;SDS011;37287;47.554;7.844;2023-06-24T04:43:58;3.28;;;2.60;;
50789;SDS011;37287;47.554;7.844;2023-06-24T04:46:27;3.90;;;2.72;;
50789;SDS011;37287;47.554;7.844;2023-06-24T04:48:53;3.38;;;3.17;;
50789;SDS011;37287;47.554;7.844;2023-06-24T04:51:22;5.97;;;3.45;;
50789;SDS011;37287;47.554;7.844;2023-06-24T04:53:48;3.03;;;2.80;;
50789;SDS011;37287;47.554;7.844;2023-06-24T04:56:15;4.90;;;2.80;;
50789;SDS011;37287;47.554;7.844;2023-06-24T04:58:43;2.63;;;2.42;;
50789;SDS011;37287;47.554;7.844;2023-06-24T05:01:10;2.45;;;2.33;;
50789;SDS011;37287;47.554;7.844;2023-06-24T05:03:37;2.65;;;2.45;;
50789;SDS011;37287;47.554;7.844;2023-06-24T05:06:03;3.47;;;2.55;;
50789;SDS011;37287;47.554;7.844;2023-06-24T05:08:30;2.60;;;2.40;;
50789;SDS011;37287;47.554;7.844;2023-06-24T05:10:59;2.88;;;2.60;;
50789;SDS011;37287;47.554;7.844;2023-06-24T05:13:27;3.17;;;2.40;;
50789;SDS011;37287;47.554;7.844;2023-06-24T05:15:54;2.97;;;2.40;;
50789;SDS011;37287;47.554;7.844;2023-06-24T05:18:20;3.00;;;2.55;;
50789;SDS011;37287;47.554;7.844;2023-06-24T05:20:53;3.33;;;2.55;;
50789;SDS011;37287;47.554;7.844;2023-06-24T05:23:20;2.90;;;2.30;;
50789;SDS011;37287;47.554;7.844;2023-06-24T05:25:46;2.50;;;2.30;;
50789;SDS011;37287;47.554;7.844;2023-06-24T05:28:13;3.38;;;2.20;;
50789;SDS011;37287;47.554;7.844;2023-06-24T05:30:40;2.58;;;2.10;;
50789;SDS011;37287;47.554;7.844;2023-06-24T05:33:08;2.63;;;2.42;;
50789;SDS011;37287;47.554;7.844;2023-06-24T05:35:36;2.85;;;2.10;;
50789;SDS011;37287;47.554;7.844;2023-06-24T05:38:06;3.40;;;2.15;;
50789;SDS011;37287;47.554;7.844;2023-06-24T05:40:32;2.08;;;1.95;;
50789;SDS011;37287;47.554;7.844;2023-06-24T05:43:05;2.30;;;2.10;;
50789;SDS011;37287;47.554;7.844;2023-06-24T05:45:32;2.58;;;2.13;;
50789;SDS011;37287;47.554;7.844;2023-06-24T05:47:59;2.38;;;2.08;;
50789;SDS011;37287;47.554;7.844;2023-06-24T05:50:27;2.38;;;2.17;;
50789;SDS011;37287;47.554;7.844;2023-06-24T05:52:54;2.30;;;2.10;;
50789;SDS011;37287;47.554;7.844;2023-06-24T05:55:21;2.00;;;1.85;;
50789;SDS011;37287;47.554;7.844;2023-06-24T05:57:49;4.53;;;2.00;;
50789;SDS011;37287;47.554;7.844;2023-06-24T06:00:17;4.32;;;2.20;;
50789;SDS011;37287;47.554;7.844;2023-06-24T06:02:44;2.55;;;2.15;;
50789;SDS011;37287;47.554;7.844;2023-06-24T06:05:17;1.90;;;1.80;;
50789;SDS011;37287;47.554;7.844;2023-06-24T06:07:44;3.63;;;1.90;;
50789;SDS011;37287;47.554;7.844;2023-06-24T06:10:10;3.97;;;1.80;;
50789;SDS011;37287;47.554;7.844;2023-06-24T06:12:37;2.50;;;2.30;;
50789;SDS011;37287;47.554;7.844;2023-06-24T06:15:03;2.50;;;2.30;;
50789;SDS011;37287;47.554;7.844;2023-06-24T06:17:31;2.50;;;2.30;;
50789;SDS011;37287;47.554;7.844;2023-06-24T06:19:58;2.38;;;2.10;;
50789;SDS011;37287;47.554;7.844;2023-06-24T06:22:25;2.28;;;2.08;;
50789;SDS011;37287;47.554;7.844;2023-06-24T06:24:51;2.60;;;2.40;;
50789;SDS011;37287;47.554;7.844;2023-06-24T06:27:18;2.45;;;2.25;;
50789;SDS011;37287;47.554;7.844;2023-06-24T06:29:45;2.35;;;2.15;;
50789;SDS011;37287;47.554;7.844;2023-06-24T06:32:11;2.63;;;2.42;;
50789;SDS011;37287;47.554;7.844;2023-06-24T06:34:38;2.60;;;2.40;;
50789;SDS011;37287;47.554;7.844;2023-06-24T06:37:04;2.83;;;2.50;;
50789;SDS011;37287;47.554;7.844;2023-06-24T06:39:31;2.80;;;2.58;;
50789;SDS011;37287;47.554;7.844;2023-06-24T06:41:58;2.45;;;2.20;;
50789;SDS011;37287;47.554;7.844;2023-06-24T06:44:24;2.50;;;2.30;;
50789;SDS011;37287;47.554;7.844;2023-06-24T06:46:51;3.70;;;2.60;;
50789;SDS011;37287;47.554;7.844;2023-06-24T06:49:18;3.55;;;2.40;;
50789;SDS011;37287;47.554;7.844;2023-06-24T06:51:44;2.10;;;2.00;;
50789;SDS011;37287;47.554;7.844;2023-06-24T06:54:11;2.30;;;2.10;;
50789;SDS011;37287;47.554;7.844;2023-06-24T06:56:37;2.92;;;2.40;;
50789;SDS011;37287;47.554;7.844;2023-06-24T06:59:04;2.30;;;2.10;;
50789;SDS011;37287;47.554;7.844;2023-06-24T07:01:32;2.28;;;2.08;;
50789;SDS011;37287;47.554;7.844;2023-06-24T07:03:59;2.08;;;1.98;;
50789;SDS011;37287;47.554;7.844;2023-06-24T07:06:26;2.92;;;2.40;;
50789;SDS011;37287;47.554;7.844;2023-06-24T07:08:53;2.63;;;2.38;;
50789;SDS011;37287;47.554;7.844;2023-06-24T07:11:20;7.53;;;2.20;;
50789;SDS011;37287;47.554;7.844;2023-06-24T07:13:48;2.75;;;2.55;;
50789;SDS011;37287;47.554;7.844;2023-06-24T07:16:17;3.47;;;2.80;;
50789;SDS011;37287;47.554;7.844;2023-06-24T07:18:44;2.25;;;2.10;;
50789;SDS011;37287;47.554;7.844;2023-06-24T07:21:11;4.50;;;2.33;;
50789;SDS011;37287;47.554;7.844;2023-06-24T07:23:37;2.30;;;2.10;;
50789;SDS011;37287;47.554;7.844;2023-06-24T07:26:08;3.40;;;2.58;;
50789;SDS011;37287;47.554;7.844;2023-06-24T07:28:34;2.70;;;2.50;;
50789;SDS011;37287;47.554;7.844;2023-06-24T07:31:01;2.80;;;2.50;;
50789;SDS011;37287;47.554;7.844;2023-06-24T07:33:27;2.90;;;2.45;;
50789;SDS011;37287;47.554;7.844;2023-06-24T07:35:56;2.55;;;2.30;;
50789;SDS011;37287;47.554;7.844;2023-06-24T07:38:23;4.70;;;2.65;;
50789;SDS011;37287;47.554;7.844;2023-06-24T07:40:49;2.72;;;2.50;;
50789;SDS011;37287;47.554;7.844;2023-06-24T07:43:16;3.72;;;2.50;;
50789;SDS011;37287;47.554;7.844;2023-06-24T07:45:42;4.50;;;2.83;;
50789;SDS011;37287;47.554;7.844;2023-06-24T07:48:09;4.15;;;2.58;;
50789;SDS011;37287;47.554;7.844;2023-06-24T07:50:38;3.13;;;2.30;;
50789;SDS011;37287;47.554;7.844;2023-06-24T07:53:05;2.40;;;2.20;;
50789;SDS011;37287;47.554;7.844;2023-06-24T07:55:31;3.58;;;2.25;;
50789;SDS011;37287;47.554;7.844;2023-06-24T07:58:01;2.42;;;2.10;;
50789;SDS011;37287;47.554;7.844;2023-06-24T08:00:29;2.30;;;2.10;;
50789;SDS011;37287;47.554;7.844;2023-06-24T08:02:56;2.75;;;2.30;;
50789;SDS011;37287;47.554;7.844;2023-06-24T08:05:23;3.72;;;2.70;;
50789;SDS011;37287;47.554;7.844;2023-06-24T08:07:52;2.58;;;2.38;;
50789;SDS011;37287;47.554;7.844;2023-06-24T08:10:22;2.20;;;2.00;;
50789;SDS011;37287;47.554;7.844;2023-06-24T08:12:49;2.33;;;2.13;;
50789;SDS011;37287;47.554;7.844;2023-06-24T08:15:15;2.67;;;2.45;;
50789;SDS011;37287;47.554;7.844;2023-06-24T08:17:42;3.10;;;2.13;;
50789;SDS011;37287;47.554;7.844;2023-06-24T08:20:20;3.08;;;2.78;;
50789;SDS011;37287;47.554;7.844;2023-06-24T08:22:47;2.42;;;2.22;;
50789;SDS011;37287;47.554;7.844;2023-06-24T08:25:14;2.40;;;2.08;;
50789;SDS011;37287;47.554;7.844;2023-06-24T08:27:41;2.17;;;1.98;;
50789;SDS011;37287;47.554;7.844;2023-06-24T08:30:09;2.58;;;2.38;;
50789;SDS011;37287;47.554;7.844;2023-06-24T08:32:36;4.00;;;2.40;;
50789;SDS011;37287;47.554;7.844;2023-06-24T08:35:03;3.00;;;2.70;;
50789;SDS011;37287;47.554;7.844;2023-06-24T08:37:54;3.60;;;2.70;;
50789;SDS011;37287;47.554;7.844;2023-06-24T08:40:21;3.17;;;2.58;;
50789;SDS011;37287;47.554;7.844;2023-06-24T08:42:47;2.72;;;2.50;;
50789;SDS011;37287;47.554;7.844;2023-06-24T08:45:15;2.90;;;2.47;;
50789;SDS011;37287;47.554;7.844;2023-06-24T08:47:42;3.30;;;3.00;;
50789;SDS011;37287;47.554;7.844;2023-06-24T08:50:12;3.08;;;2.78;;
50789;SDS011;37287;47.554;7.844;2023-06-24T08:52:42;3.40;;;2.65;;
50789;SDS011;37287;47.554;7.844;2023-06-24T08:55:12;2.80;;;2.60;;
50789;SDS011;37287;47.554;7.844;2023-06-24T08:57:42;3.42;;;2.58;;
50789;SDS011;37287;47.554;7.844;2023-06-24T09:00:09;2.75;;;2.50;;
50789;SDS011;37287;47.554;7.844;2023-06-24T09:02:37;2.47;;;2.28;;
50789;SDS011;37287;47.554;7.844;2023-06-24T09:05:06;2.70;;;2.35;;
50789;SDS011;37287;47.554;7.844;2023-06-24T09:07:33;2.97;;;2.40;;
50789;SDS011;37287;47.554;7.844;2023-06-24T09:10:02;2.63;;;2.22;;
50789;SDS011;37287;47.554;7.844;2023-06-24T09:12:33;3.10;;;2.30;;
50789;SDS011;37287;47.554;7.844;2023-06-24T09:15:02;2.67;;;2.47;;
50789;SDS011;37287;47.554;7.844;2023-06-24T09:17:29;2.50;;;2.28;;
50789;SDS011;37287;47.554;7.844;2023-06-24T09:20:03;2.83;;;2.63;;
50789;SDS011;37287;47.554;7.844;2023-06-24T09:22:31;3.45;;;2.40;;
50789;SDS011;37287;47.554;7.844;2023-06-24T09:25:00;4.97;;;2.72;;
50789;SDS011;37287;47.554;7.844;2023-06-24T09:27:30;2.55;;;2.35;;
50789;SDS011;37287;47.554;7.844;2023-06-24T09:29:57;1.92;;;1.83;;
50789;SDS011;37287;47.554;7.844;2023-06-24T09:32:30;2.72;;;2.30;;
50789;SDS011;37287;47.554;7.844;2023-06-24T09:34:57;2.33;;;2.20;;
50789;SDS011;37287;47.554;7.844;2023-06-24T09:37:28;2.45;;;2.25;;
50789;SDS011;37287;47.554;7.844;2023-06-24T09:39:57;2.60;;;2.13;;
50789;SDS011;37287;47.554;7.844;2023-06-24T09:42:31;2.85;;;2.38;;
50789;SDS011;37287;47.554;7.844;2023-06-24T09:44:58;2.45;;;2.28;;
50789;SDS011;37287;47.554;7.844;2023-06-24T09:47:30;2.13;;;1.92;;
50789;SDS011;37287;47.554;7.844;2023-06-24T09:49:56;3.00;;;1.92;;
50789;SDS011;37287;47.554;7.844;2023-06-24T09:52:24;2.25;;;2.03;;
50789;SDS011;37287;47.554;7.844;2023-06-24T09:54:52;4.20;;;2.25;;
50789;SDS011;37287;47.554;7.844;2023-06-24T09:57:23;3.50;;;2.72;;
50789;SDS011;37287;47.554;7.844;2023-06-24T09:59:53;5.07;;;2.20;;
50789;SDS011;37287;47.554;7.844;2023-06-24T10:02:22;2.47;;;2.15;;
50789;SDS011;37287;47.554;7.844;2023-06-24T10:04:49;2.20;;;2.00;;
50789;SDS011;37287;47.554;7.844;2023-06-24T10:07:18;2.38;;;2.10;;
50789;SDS011;37287;47.554;7.844;2023-06-24T10:09:45;2.70;;;2.50;;
50789;SDS011;37287;47.554;7.844;2023-06-24T10:12:12;2.42;;;2.13;;
50789;SDS011;37287;47.554;7.844;2023-06-24T10:14:40;2.67;;;2.47;;
50789;SDS011;37287;47.554;7.844;2023-06-24T10:17:07;5.65;;;2.35;;
50789;SDS011;37287;47.554;7.844;2023-06-24T10:19:40;3.88;;;2.80;;
50789;SDS011;37287;47.554;7.844;2023-06-24T10:22:08;2.95;;;2.15;;
50789;SDS011;37287;47.554;7.844;2023-06-24T10:24:37;2.65;;;2.42;;
50789;SDS011;37287;47.554;7.844;2023-06-24T10:27:13;5.22;;;2.40;;
50789;SDS011;37287;47.554;7.844;2023-06-24T10:29:39;2.97;;;2.53;;
50789;SDS011;37287;47.554;7.844;2023-06-24T10:32:11;2.60;;;2.40;;
50789;SDS011;37287;47.554;7.844;2023-06-24T10:34:39;3.22;;;2.70;;
50789;SDS011;37287;47.554;7.844;2023-06-24T10:44:53;3.15;;;2.50;;
50789;SDS011;37287;47.554;7.844;2023-06-24T10:47:23;2.78;;;2.58;;
50789;SDS011;37287;47.554;7.844;2023-06-24T10:49:53;3.38;;;2.75;;
50789;SDS011;37287;47.554;7.844;2023-06-24T10:52:20;5.15;;;2.55;;
50789;SDS011;37287;47.554;7.844;2023-06-24T10:54:49;2.58;;;2.38;;
50789;SDS011;37287;47.554;7.844;2023-06-24T10:57:21;4.47;;;2.40;;
50789;SDS011;37287;47.554;7.844;2023-06-24T10:59:50;5.55;;;2.75;;
50789;SDS011;37287;47.554;7.844;2023-06-24T11:02:22;2.33;;;2.13;;
50789;SDS011;37287;47.554;7.844;2023-06-24T11:07:18;4.13;;;2.70;;
50789;SDS011;37287;47.554;7.844;2023-06-24T11:09:52;2.58;;;2.38;;
50789;SDS011;37287;47.554;7.844;2023-06-24T11:12:27;3.08;;;2.30;;
50789;SDS011;37287;47.554;7.844;2023-06-24T11:14:58;2.80;;;2.60;;
50789;SDS011;37287;47.554;7.844;2023-06-24T11:17:33;4.45;;;2.50;;
50789;SDS011;37287;47.554;7.844;2023-06-24T11:20:01;2.53;;;2.30;;
50789;SDS011;37287;47.554;7.844;2023-06-24T11:22:32;3.17;;;2.30;;
50789;SDS011;37287;47.554;7.844;2023-06-24T11:24:59;2.50;;;2.30;;
50789;SDS011;37287;47.554;7.844;2023-06-24T11:27:26;2.72;;;2.03;;
50789;SDS011;37287;47.554;7.844;2023-06-24T11:29:55;2.70;;;2.28;;
50789;SDS011;37287;47.554;7.844;2023-06-24T11:32:37;2.60;;;2.35;;
50789;SDS011;37287;47.554;7.844;2023-06-24T11:35:10;4.50;;;2.15;;
50789;SDS011;37287;47.554;7.844;2023-06-24T11:37:40;2.47;;;2.28;;
50789;SDS011;37287;47.554;7.844;2023-06-24T11:40:11;2.63;;;2.42;;
50789;SDS011;37287;47.554;7.844;2023-06-24T11:42:40;2.60;;;2.40;;
50789;SDS011;37287;47.554;7.844;2023-06-24T11:45:10;5.00;;;2.47;;
50789;SDS011;37287;47.554;7.844;2023-06-24T11:47:41;2.78;;;2.20;;
50789;SDS011;37287;47.554;7.844;2023-06-24T11:50:08;2.97;;;2.40;;
50789;SDS011;37287;47.554;7.844;2023-06-24T11:55:02;2.80;;;2.42;;
50789;SDS011;37287;47.554;7.844;2023-06-24T11:57:48;3.40;;;2.47;;
50789;SDS011;37287;47.554;7.844;2023-06-24T12:00:29;2.38;;;2.17;;
50789;SDS011;37287;47.554;7.844;2023-06-24T12:03:00;3.20;;;2.40;;
50789;SDS011;37287;47.554;7.844;2023-06-24T12:05:36;2.58;;;2.38;;
50789;SDS011;37287;47.554;7.844;2023-06-24T12:08:04;3.85;;;2.40;;
50789;SDS011;37287;47.554;7.844;2023-06-24T12:10:36;2.40;;;2.20;;
50789;SDS011;37287;47.554;7.844;2023-06-24T12:13:05;2.35;;;2.05;;
50789;SDS011;37287;47.554;7.844;2023-06-24T12:15:35;3.97;;;2.38;;
50789;SDS011;37287;47.554;7.844;2023-06-24T12:18:02;3.42;;;2.50;;
50789;SDS011;37287;47.554;7.844;2023-06-24T12:20:32;2.88;;;2.53;;
50789;SDS011;37287;47.554;7.844;2023-06-24T12:23:03;4.13;;;2.50;;
50789;SDS011;37287;47.554;7.844;2023-06-24T12:25:30;2.60;;;2.40;;
50789;SDS011;37287;47.554;7.844;2023-06-24T12:28:01;2.72;;;2.45;;
50789;SDS011;37287;47.554;7.844;2023-06-24T12:30:28;3.17;;;2.60;;
50789;SDS011;37287;47.554;7.844;2023-06-24T12:32:56;2.53;;;2.30;;
50789;SDS011;37287;47.554;7.844;2023-06-24T12:35:23;2.70;;;2.50;;
50789;SDS011;37287;47.554;7.844;2023-06-24T12:37:53;3.97;;;2.58;;
50789;SDS011;37287;47.554;7.844;2023-06-24T12:40:20;2.47;;;2.28;;
50789;SDS011;37287;47.554;7.844;2023-06-24T12:42:47;2.45;;;2.25;;
50789;SDS011;37287;47.554;7.844;2023-06-24T12:45:13;2.60;;;2.40;;
50789;SDS011;37287;47.554;7.844;2023-06-24T12:47:40;2.40;;;2.15;;
50789;SDS011;37287;47.554;7.844;2023-06-24T12:50:07;2.53;;;2.33;;
50789;SDS011;37287;47.554;7.844;2023-06-24T12:52:35;3.33;;;2.50;;
50789;SDS011;37287;47.554;7.844;2023-06-24T12:55:04;2.38;;;2.17;;
50789;SDS011;37287;47.554;7.844;2023-06-24T12:57:33;2.92;;;2.28;;
50789;SDS011;37287;47.554;7.844;2023-06-24T12:59:59;4.95;;;2.35;;
50789;SDS011;37287;47.554;7.844;2023-06-24T13:02:26;2.50;;;2.30;;
50789;SDS011;37287;47.554;7.844;2023-06-24T13:04:53;2.67;;;2.47;;
50789;SDS011;37287;47.554;7.844;2023-06-24T13:07:19;3.05;;;2.30;;
50789;SDS011;37287;47.554;7.844;2023-06-24T13:09:46;3.33;;;2.55;;
50789;SDS011;37287;47.554;7.844;2023-06-24T13:12:13;2.92;;;2.65;;
50789;SDS011;37287;47.554;7.844;2023-06-24T13:14:39;2.70;;;2.50;;
50789;SDS011;37287;47.554;7.844;2023-06-24T13:17:06;3.28;;;2.50;;
50789;SDS011;37287;47.554;7.844;2023-06-24T13:19:37;2.58;;;2.38;;
50789;SDS011;37287;47.554;7.844;2023-06-24T13:22:04;3.20;;;2.42;;
50789;SDS011;37287;47.554;7.844;2023-06-24T13:24:36;2.55;;;2.35;;
50789;SDS011;37287;47.554;7.844;2023-06-24T13:27:03;3.00;;;2.45;;
50789;SDS011;37287;47.554;7.844;2023-06-24T13:29:32;3.40;;;2.40;;
50789;SDS011;37287;47.554;7.844;2023-06-24T13:31:58;2.97;;;2.28;;
50789;SDS011;37287;47.554;7.844;2023-06-24T13:34:25;2.45;;;2.25;;
50789;SDS011;37287;47.554;7.844;2023-06-24T13:36:52;2.40;;;2.20;;
50789;SDS011;37287;47.554;7.844;2023-06-24T13:39:19;2.50;;;2.30;;
50789;SDS011;37287;47.554;7.844;2023-06-24T13:41:50;2.42;;;2.20;;
50789;SDS011;37287;47.554;7.844;2023-06-24T13:44:19;2.35;;;2.15;;
50789;SDS011;37287;47.554;7.844;2023-06-24T13:46:46;2.33;;;2.15;;
50789;SDS011;37287;47.554;7.844;2023-06-24T13:49:12;4.03;;;2.65;;
50789;SDS011;37287;47.554;7.844;2023-06-24T13:51:39;2.67;;;2.38;;
50789;SDS011;37287;47.554;7.844;2023-06-24T13:54:07;2.20;;;2.00;;
50789;SDS011;37287;47.554;7.844;2023-06-24T13:56:34;3.80;;;2.42;;
50789;SDS011;37287;47.554;7.844;2023-06-24T13:59:00;2.40;;;2.20;;
50789;SDS011;37287;47.554;7.844;2023-06-24T14:01:27;2.53;;;2.33;;
50789;SDS011;37287;47.554;7.844;2023-06-24T14:03:58;3.67;;;2.60;;
50789;SDS011;37287;47.554;7.844;2023-06-24T14:06:26;2.40;;;2.17;;
50789;SDS011;37287;47.554;7.844;2023-06-24T14:08:53;15.30;;;2.40;;
50789;SDS011;37287;47.554;7.844;2023-06-24T14:11:20;4.32;;;2.17;;
50789;SDS011;37287;47.554;7.844;2023-06-24T14:13:47;2.28;;;2.10;;
50789;SDS011;37287;47.554;7.844;2023-06-24T14:16:13;2.08;;;1.88;;
50789;SDS011;37287;47.554;7.844;2023-06-24T14:18:40;2.40;;;2.20;;
50789;SDS011;37287;47.554;7.844;2023-06-24T14:21:07;2.05;;;1.95;;
50789;SDS011;37287;47.554;7.844;2023-06-24T14:23:34;3.08;;;2.30;;
50789;SDS011;37287;47.554;7.844;2023-06-24T14:26:02;3.35;;;2.35;;
50789;SDS011;37287;47.554;7.844;2023-06-24T14:28:28;2.38;;;2.17;;
50789;SDS011;37287;47.554;7.844;2023-06-24T14:30:55;5.10;;;2.20;;
50789;SDS011;37287;47.554;7.844;2023-06-24T14:33:22;2.80;;;2.38;;
50789;SDS011;37287;47.554;7.844;2023-06-24T14:35:48;3.70;;;2.70;;
50789;SDS011;37287;47.554;7.844;2023-06-24T14:38:19;2.35;;;2.15;;
50789;SDS011;37287;47.554;7.844;2023-06-24T14:40:46;2.67;;;2.47;;
50789;SDS011;37287;47.554;7.844;2023-06-24T14:43:12;2.38;;;2.17;;
50789;SDS011;37287;47.554;7.844;2023-06-24T14:45:39;4.32;;;2.30;;
50789;SDS011;37287;47.554;7.844;2023-06-24T14:48:06;2.47;;;2.30;;
50789;SDS011;37287;47.554;7.844;2023-06-24T14:50:32;2.60;;;2.40;;
50789;SDS011;37287;47.554;7.844;2023-06-24T14:52:59;2.88;;;2.35;;
50789;SDS011;37287;47.554;7.844;2023-06-24T14:55:27;3.00;;;2.35;;
50789;SDS011;37287;47.554;7.844;2023-06-24T14:57:54;2.63;;;2.30;;
50789;SDS011;37287;47.554;7.844;2023-06-24T15:00:23;2.40;;;2.20;;
50789;SDS011;37287;47.554;7.844;2023-06-24T15:02:50;4.85;;;2.63;;
50789;SDS011;37287;47.554;7.844;2023-06-24T15:05:17;2.42;;;2.20;;
50789;SDS011;37287;47.554;7.844;2023-06-24T15:07:43;2.28;;;2.08;;
50789;SDS011;37287;47.554;7.844;2023-06-24T15:10:10;2.38;;;2.10;;
50789;SDS011;37287;47.554;7.844;2023-06-24T15:12:39;2.45;;;2.22;;
50789;SDS011;37287;47.554;7.844;2023-06-24T15:15:06;2.45;;;2.20;;
50789;SDS011;37287;47.554;7.844;2023-06-24T15:17:33;5.35;;;2.08;;
50789;SDS011;37287;47.554;7.844;2023-06-24T15:20:01;2.40;;;2.20;;
50789;SDS011;37287;47.554;7.844;2023-06-24T15:22:28;2.20;;;1.98;;
50789;SDS011;37287;47.554;7.844;2023-06-24T15:24:59;2.65;;;2.10;;
50789;SDS011;37287;47.554;7.844;2023-06-24T15:27:26;2.30;;;2.10;;